Terminal Aerodrome Forecast
Issued by NWS

Home | Current Version | Previous Version | Text Only | Print | Product List | Glossary On
Versions: 1 2 3 4 5 6 7 8 9 10 11 12 13 14 15
000
FTUS45 KPSR 271121
TAFSDL
TAF
KSDL 271121Z 2712/2812 VRB05KT P6SM SCT060 BKN250
     FM271800 16005KT P6SM BKN060 BKN180
     FM272100 21008KT P6SM VCSH BKN060 BKN100
     FM280000 24008KT P6SM -RA FEW030 BKN040 OVC060
      TEMPO 2802/2806 VRB05KT 5SM RA BR FEW020 OVC030=

USA.gov is the U.S. government's official web portal to all federal, state and local government web resources and services.